Archival Weather

Yakutsk

Yakutsk, Russia (UEEE)

Report from: Thursday, January 26, 2023 5:00 PM JST
Current time: Friday, April 19, 2024 6:31 PM JST

Current weather – Weather history – Daily summaries
Weather forecast

Present weatherFog
Temperature-46.0°C (-50.8°F)
Dew point-50.0°C (-58.0°F)
Winds Calm
Visibility1148.3 ft. (350 m)
Clouds Ceiling: Vertical visibility 300 ft. (91 m)
Altimeter30.42 in.Hg (1030 mB)
Precip. events QB 8:30 AM
QF 7:43 PM
Relative humidity63 %
Density altitude-8,932 ft. (-2,722 m)
Remarks No significant changes expected in the next two hours
Flight conditions Low Instrument Meteorological Conditions
Raw dataUEEE 260800Z 00000MPS 0350 0300SW R23L/0900U FG VV003 M46/M50 Q1030 R23L/490150 NOSIG RMK QBB090 QFE763
An error has occurred. This application may no longer respond until reloaded. Reload 🗙